Time;durP1;ratioP1;P1;durP2;ratioP2;P2;SDS_P1;SDS_P2;PMS_P1;PMS_P2;Temp;Humidity;BMP_temperature;BMP_pressure;BME280_temperature;BME280_humidity;BME280_pressure;Samples;Min_cycle;Max_cycle;Signal;HPM_P1;HPM_P2
2023/03/18 00:00:24;;;;;;;12.60;5.38;;;7.10;79.30;;;;;;5116417;28;20275;-71
2023/03/18 00:02:56;;;;;;;7.25;4.40;;;7.00;79.60;;;;;;5116596;28;20192;-70
2023/03/18 00:05:24;;;;;;;8.55;4.88;;;7.10;80.60;;;;;;5117025;28;20233;-72
2023/03/18 00:07:53;;;;;;;9.75;5.15;;;7.00;80.60;;;;;;5116550;28;20192;-70
2023/03/18 00:10:20;;;;;;;7.45;4.80;;;7.00;79.90;;;;;;5116265;28;20265;-70
2023/03/18 00:12:47;;;;;;;6.90;4.95;;;7.00;80.20;;;;;;5116284;28;20193;-70
2023/03/18 00:15:19;;;;;;;7.85;5.18;;;7.00;80.00;;;;;;5116161;28;20192;-72
2023/03/18 00:17:47;;;;;;;6.28;4.53;;;7.00;79.60;;;;;;5116468;28;20238;-70
2023/03/18 00:20:17;;;;;;;8.20;4.90;;;7.00;80.10;;;;;;5116087;28;20220;-71
2023/03/18 00:22:46;;;;;;;5.65;4.60;;;6.90;80.30;;;;;;5116563;28;20188;-70
2023/03/18 00:25:15;;;;;;;7.20;4.68;;;6.90;80.50;;;;;;5116279;28;20669;-70
2023/03/18 00:27:43;;;;;;;7.13;4.32;;;6.80;80.00;;;;;;5116019;28;20241;-70
2023/03/18 00:30:12;;;;;;;8.65;5.00;;;6.80;80.40;;;;;;5115716;28;20588;-70
2023/03/18 00:32:45;;;;;;;6.60;4.78;;;6.80;80.40;;;;;;5115829;28;20192;-70
2023/03/18 00:35:15;;;;;;;4.38;3.50;;;6.80;80.20;;;;;;5115626;28;20250;-70
2023/03/18 00:37:44;;;;;;;6.18;3.92;;;6.80;79.70;;;;;;5132800;27;20626;-71
2023/03/18 00:40:19;;;;;;;7.90;5.15;;;6.80;79.30;;;;;;5136800;27;20203;-70
2023/03/18 00:42:56;;;;;;;9.50;5.28;;;6.70;78.70;;;;;;5136477;27;20194;-70
2023/03/18 00:45:24;;;;;;;7.72;4.07;;;6.60;76.90;;;;;;5136241;27;20190;-70
2023/03/18 00:47:56;;;;;;;8.02;5.00;;;6.60;76.90;;;;;;5136276;27;20198;-71
2023/03/18 00:50:23;;;;;;;4.85;4.20;;;6.50;77.20;;;;;;5136237;27;20310;-70
2023/03/18 00:52:55;;;;;;;6.60;4.53;;;6.50;78.30;;;;;;5136201;27;20195;-70
2023/03/18 00:55:24;;;;;;;7.22;4.53;;;6.60;78.70;;;;;;5136386;27;20282;-70
2023/03/18 00:57:52;;;;;;;8.00;5.18;;;6.60;78.80;;;;;;5135998;27;20634;-70
2023/03/18 01:00:20;;;;;;;10.85;5.20;;;6.50;78.70;;;;;;5135339;27;20184;-71
2023/03/18 01:02:53;;;;;;;8.10;4.60;;;6.50;78.70;;;;;;5135731;27;20191;-71
2023/03/18 01:05:22;;;;;;;8.00;4.82;;;6.50;79.00;;;;;;5135515;27;20192;-70
2023/03/18 01:07:53;;;;;;;6.30;4.05;;;6.60;80.00;;;;;;5136210;27;20661;-70
2023/03/18 01:10:24;;;;;;;12.02;4.72;;;6.60;80.10;;;;;;5135739;27;20220;-70
2023/03/18 01:12:53;;;;;;;6.72;3.90;;;6.60;80.30;;;;;;5136012;27;20192;-70
2023/03/18 01:15:24;;;;;;;6.10;3.67;;;6.60;80.00;;;;;;5135337;27;20191;-70
2023/03/18 01:17:57;;;;;;;7.10;3.70;;;6.70;80.60;;;;;;5135893;27;20187;-70
2023/03/18 01:20:24;;;;;;;7.07;3.75;;;6.70;81.00;;;;;;5135999;27;20184;-71
2023/03/18 01:22:51;;;;;;;11.38;5.10;;;6.70;80.50;;;;;;5135403;27;20240;-70
2023/03/18 01:25:20;;;;;;;7.93;4.25;;;6.70;79.90;;;;;;5135748;27;20213;-70
2023/03/18 01:27:49;;;;;;;6.68;3.72;;;6.70;79.80;;;;;;5135780;27;20247;-70
2023/03/18 01:30:16;;;;;;;9.85;3.63;;;6.70;79.90;;;;;;5135382;27;20302;-71
2023/03/18 01:32:44;;;;;;;6.18;3.65;;;6.70;80.00;;;;;;5135364;27;20227;-71
2023/03/18 01:35:12;;;;;;;8.27;3.70;;;6.70;80.30;;;;;;5135540;27;20199;-70
2023/03/18 01:37:42;;;;;;;5.82;4.20;;;6.70;80.50;;;;;;5135252;27;20279;-70
2023/03/18 01:40:16;;;;;;;5.88;3.92;;;6.70;80.40;;;;;;5135015;27;20624;-70
2023/03/18 01:42:48;;;;;;;4.88;3.80;;;6.70;79.90;;;;;;5135127;27;20270;-70
2023/03/18 01:45:24;;;;;;;8.65;4.22;;;6.70;79.70;;;;;;5135335;27;20188;-70
2023/03/18 01:47:51;;;;;;;8.75;4.10;;;6.60;79.30;;;;;;5134877;27;20549;-70
2023/03/18 01:50:24;;;;;;;10.07;4.60;;;6.60;79.10;;;;;;5135017;27;20350;-70
2023/03/18 01:52:56;;;;;;;8.25;3.45;;;6.60;79.10;;;;;;5134677;27;20278;-70
2023/03/18 01:55:27;;;;;;;7.95;3.38;;;6.60;79.20;;;;;;5134882;27;20188;-72
2023/03/18 01:57:58;;;;;;;4.68;3.40;;;6.60;79.50;;;;;;5135218;27;20598;-71
2023/03/18 02:00:27;;;;;;;5.97;3.78;;;6.60;80.00;;;;;;5134176;27;20622;-71
2023/03/18 02:02:54;;;;;;;6.60;3.85;;;6.60;80.50;;;;;;5134787;27;20192;-73
2023/03/18 02:05:23;;;;;;;6.85;3.65;;;6.70;80.70;;;;;;5135071;27;20278;-71
2023/03/18 02:07:51;;;;;;;9.80;4.22;;;6.70;79.20;;;;;;5135000;27;20288;-70
2023/03/18 02:10:23;;;;;;;7.93;3.75;;;6.70;78.80;;;;;;5134534;27;20219;-72
2023/03/18 02:12:59;;;;;;;5.45;3.50;;;6.70;78.00;;;;;;5134736;27;20195;-70
2023/03/18 02:15:33;;;;;;;5.78;3.35;;;6.60;78.60;;;;;;5134285;27;20191;-70
2023/03/18 02:18:04;;;;;;;4.65;3.13;;;6.60;79.30;;;;;;5133842;27;20283;-71
2023/03/18 02:20:43;;;;;;;5.55;3.53;;;6.60;79.80;;;;;;5134158;27;20252;-71
2023/03/18 02:23:21;;;;;;;3.70;2.63;;;6.70;80.10;;;;;;5134361;27;20282;-70
2023/03/18 02:25:53;;;;;;;5.50;3.00;;;6.70;81.00;;;;;;5134469;27;20248;-70
2023/03/18 02:28:28;;;;;;;5.70;2.85;;;6.70;80.40;;;;;;5134310;27;20234;-70
2023/03/18 02:31:03;;;;;;;7.40;3.08;;;6.80;80.20;;;;;;5134305;27;20222;-72
2023/03/18 02:33:34;;;;;;;6.50;2.85;;;6.80;80.30;;;;;;5134336;27;20215;-70
2023/03/18 02:36:07;;;;;;;4.63;3.03;;;6.80;80.20;;;;;;5134464;27;20191;-70
2023/03/18 02:38:34;;;;;;;4.53;2.58;;;6.80;80.60;;;;;;5134326;27;20271;-70
2023/03/18 02:41:15;;;;;;;5.70;2.80;;;6.90;81.20;;;;;;5134093;27;20722;-70
2023/03/18 02:43:44;;;;;;;5.28;3.88;;;6.90;81.60;;;;;;5133759;27;20187;-70
2023/03/18 02:46:38;;;;;;;4.72;2.97;;;7.00;81.60;;;;;;5133859;27;20256;-70
2023/03/18 02:49:07;;;;;;;3.67;1.85;;;7.00;81.40;;;;;;5130669;27;20187;-70
2023/03/18 02:51:35;;;;;;;4.25;2.47;;;7.10;81.40;;;;;;5133839;27;20625;-70
2023/03/18 02:54:07;;;;;;;4.72;2.42;;;7.10;81.30;;;;;;5134014;27;20191;-71
2023/03/18 02:56:38;;;;;;;5.82;2.60;;;7.10;81.00;;;;;;5133720;27;20263;-71
2023/03/18 02:59:07;;;;;;;5.05;2.63;;;7.10;79.90;;;;;;5133496;27;20301;-70
2023/03/18 03:01:35;;;;;;;3.88;2.30;;;7.10;80.90;;;;;;5133647;27;20298;-71
2023/03/18 03:04:03;;;;;;;4.30;2.60;;;7.00;79.60;;;;;;5133857;27;20595;-70
2023/03/18 03:06:30;;;;;;;4.22;2.38;;;6.90;79.80;;;;;;5133811;27;20223;-70
2023/03/18 03:09:03;;;;;;;4.63;2.55;;;6.90;80.00;;;;;;5133334;28;20282;-73
2023/03/18 03:11:36;;;;;;;4.88;2.75;;;6.90;80.40;;;;;;5133800;28;20273;-71
2023/03/18 03:14:07;;;;;;;4.18;2.05;;;6.90;80.50;;;;;;5133744;28;20190;-70
2023/03/18 03:16:35;;;;;;;4.30;2.47;;;6.90;80.70;;;;;;5133770;28;20188;-70
2023/03/18 03:19:03;;;;;;;5.13;3.25;;;6.80;80.30;;;;;;5133533;28;20196;-71
2023/03/18 03:21:31;;;;;;;6.35;3.28;;;6.80;80.00;;;;;;5133647;28;20213;-73
2023/03/18 03:23:58;;;;;;;5.05;2.72;;;6.70;79.40;;;;;;5133923;28;20203;-70
2023/03/18 03:26:28;;;;;;;4.40;2.55;;;6.70;79.00;;;;;;5133559;28;20612;-70
2023/03/18 03:28:55;;;;;;;5.78;3.60;;;6.60;78.30;;;;;;5135036;27;20233;-71
2023/03/18 03:31:25;;;;;;;4.93;3.13;;;6.60;79.00;;;;;;5137638;27;20649;-70
2023/03/18 03:33:53;;;;;;;4.55;2.17;;;6.50;79.30;;;;;;5137684;27;20274;-70
2023/03/18 03:36:23;;;;;;;3.28;2.42;;;6.50;79.90;;;;;;5137844;27;20190;-70
2023/03/18 03:38:55;;;;;;;4.43;2.60;;;6.60;80.60;;;;;;5137440;27;20207;-70
2023/03/18 03:41:22;;;;;;;4.80;2.30;;;6.60;81.30;;;;;;5137670;27;20327;-70
2023/03/18 03:43:50;;;;;;;3.17;2.40;;;6.60;81.50;;;;;;5137845;27;20222;-70
2023/03/18 03:46:21;;;;;;;5.80;2.03;;;6.70;81.70;;;;;;5137208;27;20188;-70
2023/03/18 03:48:51;;;;;;;5.93;2.70;;;6.70;81.80;;;;;;5137126;27;20235;-71
2023/03/18 03:51:18;;;;;;;5.25;2.60;;;6.70;81.50;;;;;;5137176;27;20777;-70
2023/03/18 03:53:49;;;;;;;2.63;1.80;;;6.80;81.30;;;;;;5137182;27;20654;-70
2023/03/18 03:56:16;;;;;;;4.03;1.90;;;6.90;80.90;;;;;;5137420;27;20183;-73
2023/03/18 03:58:44;;;;;;;5.03;2.30;;;6.90;80.80;;;;;;5137475;27;20221;-70
2023/03/18 04:01:19;;;;;;;2.75;1.77;;;6.90;80.80;;;;;;5136674;27;20258;-70
2023/03/18 04:03:48;;;;;;;7.18;3.15;;;6.90;80.90;;;;;;5136955;27;20273;-71
2023/03/18 04:06:17;;;;;;;5.03;2.95;;;6.90;80.80;;;;;;5137231;27;20642;-71
2023/03/18 04:08:47;;;;;;;3.25;2.38;;;6.90;81.20;;;;;;5137374;27;20226;-70
2023/03/18 04:11:14;;;;;;;5.95;3.75;;;6.90;81.00;;;;;;5137071;27;20219;-70
2023/03/18 04:13:49;;;;;;;4.18;3.22;;;6.90;80.60;;;;;;5137019;27;20196;-70
2023/03/18 04:16:17;;;;;;;5.18;3.95;;;7.00;80.20;;;;;;5137209;27;20204;-73
2023/03/18 04:18:44;;;;;;;6.85;4.00;;;7.00;79.60;;;;;;5136941;27;20524;-71
2023/03/18 04:21:12;;;;;;;5.80;4.15;;;7.00;79.80;;;;;;5136869;27;20237;-78
2023/03/18 04:23:41;;;;;;;6.03;3.20;;;7.00;79.80;;;;;;5137051;27;20220;-71
2023/03/18 04:26:09;;;;;;;4.95;3.65;;;6.90;79.70;;;;;;5136660;27;20231;-70
2023/03/18 04:28:41;;;;;;;4.93;3.00;;;6.90;80.00;;;;;;5136865;27;20594;-70
2023/03/18 04:31:14;;;;;;;4.38;3.20;;;6.90;79.90;;;;;;5136047;27;20222;-71
2023/03/18 04:33:44;;;;;;;5.40;3.50;;;6.90;79.60;;;;;;5136493;27;20202;-70
2023/03/18 04:36:12;;;;;;;4.03;2.80;;;6.80;79.10;;;;;;5136515;27;20195;-70
2023/03/18 04:38:45;;;;;;;4.22;2.55;;;6.80;78.60;;;;;;5136686;27;20202;-70
2023/03/18 04:41:12;;;;;;;5.47;2.58;;;6.70;78.70;;;;;;5135542;27;20195;-71
2023/03/18 04:43:44;;;;;;;4.32;2.60;;;6.60;79.20;;;;;;5136483;27;20268;-70
2023/03/18 04:46:11;;;;;;;4.15;2.55;;;6.60;79.60;;;;;;5135946;27;20196;-70
2023/03/18 04:48:39;;;;;;;3.28;1.90;;;6.60;79.50;;;;;;5136487;27;20514;-70
2023/03/18 04:51:07;;;;;;;4.07;2.55;;;6.50;79.00;;;;;;5136180;27;20578;-71
2023/03/18 04:53:40;;;;;;;3.55;2.10;;;6.50;79.00;;;;;;5136144;27;20272;-73
2023/03/18 04:56:12;;;;;;;4.32;3.20;;;6.40;79.50;;;;;;5135947;27;20187;-71
2023/03/18 04:58:40;;;;;;;3.15;2.20;;;6.30;79.40;;;;;;5136027;27;20234;-70
2023/03/18 05:01:08;;;;;;;5.00;2.55;;;6.30;80.00;;;;;;5135520;27;20697;-71
2023/03/18 05:03:42;;;;;;;5.35;2.60;;;6.30;80.50;;;;;;5135888;27;20187;-72
2023/03/18 05:06:16;;;;;;;6.28;2.33;;;6.40;81.10;;;;;;5135703;27;20198;-71
2023/03/18 05:08:48;;;;;;;4.35;2.20;;;6.40;81.60;;;;;;5135801;27;20183;-71
2023/03/18 05:11:16;;;;;;;3.47;2.20;;;6.40;81.80;;;;;;5135925;27;20259;-71
2023/03/18 05:13:46;;;;;;;3.78;2.05;;;6.40;81.90;;;;;;5135543;27;20191;-71
2023/03/18 05:16:14;;;;;;;6.78;3.35;;;6.50;82.30;;;;;;5135835;27;20693;-70
2023/03/18 05:18:47;;;;;;;4.38;2.40;;;6.40;82.30;;;;;;5135477;27;20191;-70
2023/03/18 05:21:14;;;;;;;4.18;2.83;;;6.40;82.40;;;;;;5135771;27;20187;-71
2023/03/18 05:23:48;;;;;;;4.10;2.38;;;6.40;82.60;;;;;;5135937;27;20230;-70
2023/03/18 05:26:18;;;;;;;5.35;2.50;;;6.50;82.60;;;;;;5135593;27;20270;-70
2023/03/18 05:28:45;;;;;;;7.53;3.90;;;6.40;82.60;;;;;;5135085;27;20227;-71
2023/03/18 05:31:13;;;;;;;6.47;2.63;;;6.40;81.80;;;;;;5135410;27;20268;-71
2023/03/18 05:33:41;;;;;;;4.40;2.70;;;6.50;81.60;;;;;;5135320;27;20270;-71
2023/03/18 05:36:13;;;;;;;4.80;2.85;;;6.40;81.90;;;;;;5135106;27;20210;-70
2023/03/18 05:38:40;;;;;;;6.60;2.40;;;6.40;82.50;;;;;;5135174;27;20184;-70
2023/03/18 05:41:09;;;;;;;4.78;2.72;;;6.40;82.60;;;;;;5135003;27;20244;-70
2023/03/18 05:43:41;;;;;;;4.07;2.13;;;6.40;82.80;;;;;;5135289;27;20194;-70
2023/03/18 05:46:08;;;;;;;3.65;2.60;;;6.40;83.20;;;;;;5135033;27;20259;-70
2023/03/18 05:48:40;;;;;;;5.40;3.67;;;6.40;83.60;;;;;;5135083;27;20256;-71
2023/03/18 05:51:07;;;;;;;5.05;3.33;;;6.40;83.70;;;;;;5134799;27;20215;-71
2023/03/18 05:53:34;;;;;;;4.43;3.00;;;6.50;83.70;;;;;;5133886;27;20274;-70
2023/03/18 05:56:02;;;;;;;4.75;2.55;;;6.50;83.10;;;;;;5134677;27;20192;-70
2023/03/18 05:58:30;;;;;;;6.85;4.20;;;6.50;82.80;;;;;;5134900;27;20237;-70
2023/03/18 06:01:03;;;;;;;10.55;3.80;;;6.50;82.70;;;;;;5134481;27;20222;-70
2023/03/18 06:03:35;;;;;;;5.60;3.60;;;6.50;82.40;;;;;;5134407;27;20198;-70
2023/03/18 06:06:02;;;;;;;5.43;3.45;;;6.60;82.20;;;;;;5134588;27;20244;-71
2023/03/18 06:08:34;;;;;;;7.13;4.05;;;6.60;82.10;;;;;;5134544;27;20240;-71
2023/03/18 06:11:06;;;;;;;8.20;4.32;;;6.70;82.10;;;;;;5134518;27;20682;-71
2023/03/18 06:13:38;;;;;;;8.75;5.10;;;6.80;81.90;;;;;;5134776;27;20184;-71
2023/03/18 06:16:07;;;;;;;6.97;4.55;;;6.80;81.90;;;;;;5134208;27;20187;-70
2023/03/18 06:18:34;;;;;;;6.05;4.38;;;6.80;81.80;;;;;;5134577;27;20616;-70
2023/03/18 06:21:02;;;;;;;5.30;4.22;;;6.90;81.50;;;;;;5134467;27;20549;-70
2023/03/18 06:23:31;;;;;;;7.18;3.92;;;7.00;81.00;;;;;;5134772;27;20626;-71
2023/03/18 06:26:17;;;;;;;7.20;5.53;;;7.10;80.60;;;;;;5134402;27;20192;-71
2023/03/18 06:28:46;;;;;;;5.95;4.00;;;7.20;80.10;;;;;;5134149;27;20283;-71
2023/03/18 06:31:14;;;;;;;10.60;4.20;;;7.40;79.10;;;;;;5134083;27;20310;-70
2023/03/18 06:33:46;;;;;;;6.90;3.83;;;7.40;78.40;;;;;;5134097;27;20194;-70
2023/03/18 06:36:18;;;;;;;4.97;3.22;;;7.50;78.30;;;;;;5134257;27;20228;-70
2023/03/18 06:38:47;;;;;;;8.60;3.58;;;7.70;77.80;;;;;;5131667;27;20184;-71
2023/03/18 06:41:15;;;;;;;5.35;3.38;;;7.90;77.30;;;;;;5133219;27;20199;-70
2023/03/18 06:43:49;;;;;;;7.50;4.28;;;8.00;76.70;;;;;;5132485;27;20184;-70
2023/03/18 06:46:18;;;;;;;7.38;4.63;;;8.20;76.30;;;;;;5125680;27;20562;-71
2023/03/18 06:48:50;;;;;;;9.75;5.72;;;8.40;76.20;;;;;;5132161;27;20275;-71
2023/03/18 06:51:20;;;;;;;7.63;4.43;;;8.60;76.00;;;;;;5131817;27;20237;-71
2023/03/18 06:53:53;;;;;;;8.65;4.75;;;8.80;74.70;;;;;;5133205;27;20191;-71
2023/03/18 06:56:21;;;;;;;7.95;5.97;;;9.00;73.60;;;;;;5131883;27;20187;-71
2023/03/18 06:58:53;;;;;;;6.88;5.63;;;9.20;72.40;;;;;;5132088;27;20192;-71
2023/03/18 07:01:22;;;;;;;8.20;5.65;;;9.30;70.90;;;;;;5123692;27;20232;-71
2023/03/18 07:03:51;;;;;;;7.30;4.47;;;9.50;71.20;;;;;;5111007;28;20189;-71
2023/03/18 07:06:20;;;;;;;6.50;4.55;;;9.60;69.50;;;;;;5112658;28;20188;-71
2023/03/18 07:08:47;;;;;;;5.95;3.50;;;9.70;68.40;;;;;;5108508;28;20608;-71
2023/03/18 07:11:15;;;;;;;6.15;3.60;;;9.90;69.40;;;;;;5100680;28;20756;-72
2023/03/18 07:13:43;;;;;;;13.93;5.85;;;10.10;68.60;;;;;;5098388;28;20195;-71
2023/03/18 07:16:12;;;;;;;8.38;5.28;;;10.20;68.80;;;;;;5100776;28;20212;-71
2023/03/18 07:18:41;;;;;;;9.18;4.20;;;10.40;66.80;;;;;;5105009;28;20185;-71
2023/03/18 07:21:24;;;;;;;9.45;4.72;;;10.50;65.20;;;;;;5102391;28;20189;-71
2023/03/18 07:23:55;;;;;;;4.50;3.53;;;10.70;65.90;;;;;;5102941;28;20185;-71
2023/03/18 07:26:23;;;;;;;6.18;4.55;;;10.90;65.20;;;;;;5091806;28;20204;-73
2023/03/18 07:28:56;;;;;;;5.82;3.60;;;11.00;64.20;;;;;;5100663;28;20188;-71
2023/03/18 07:31:23;;;;;;;5.80;3.30;;;11.20;64.50;;;;;;5108718;28;20736;-71
2023/03/18 07:33:56;;;;;;;7.88;3.22;;;11.40;64.30;;;;;;5103607;28;20187;-73
2023/03/18 07:36:26;;;;;;;4.60;3.75;;;11.60;63.50;;;;;;5091993;28;20193;-72
2023/03/18 07:38:56;;;;;;;8.05;4.45;;;11.90;63.70;;;;;;5103525;28;20188;-71
2023/03/18 07:41:36;;;;;;;5.35;3.70;;;12.20;62.20;;;;;;5109093;28;20234;-72
2023/03/18 07:44:09;;;;;;;6.00;4.03;;;12.60;60.70;;;;;;5101182;28;20246;-71
2023/03/18 07:46:36;;;;;;;3.88;2.88;;;13.00;60.10;;;;;;5108897;28;20226;-72
2023/03/18 07:49:08;;;;;;;3.83;2.30;;;13.40;59.20;;;;;;5098210;28;20197;-71
2023/03/18 07:51:35;;;;;;;7.15;2.95;;;13.90;57.10;;;;;;5090781;28;20259;-71
2023/03/18 07:54:03;;;;;;;5.15;2.70;;;14.50;56.40;;;;;;5093479;28;20271;-73
2023/03/18 07:56:31;;;;;;;6.22;2.50;;;15.30;54.90;;;;;;5103243;28;20188;-71
2023/03/18 07:58:58;;;;;;;5.03;3.80;;;16.20;53.10;;;;;;5109817;28;20204;-71
2023/03/18 08:01:31;;;;;;;6.33;3.40;;;16.90;48.00;;;;;;5110030;28;20937;-71
2023/03/18 08:04:01;;;;;;;5.03;2.83;;;17.60;46.30;;;;;;5120368;28;20456;-74
2023/03/18 08:06:30;;;;;;;3.80;2.40;;;18.10;45.10;;;;;;5124448;28;20444;-72
2023/03/18 08:09:02;;;;;;;4.60;2.33;;;18.30;43.70;;;;;;5114137;28;20951;-74
2023/03/18 08:11:32;;;;;;;4.37;2.60;;;18.60;43.40;;;;;;5125875;28;20567;-72
2023/03/18 08:14:04;;;;;;;3.70;2.33;;;19.40;42.10;;;;;;5112715;28;20969;-70
2023/03/18 08:16:32;;;;;;;3.67;2.60;;;20.50;40.50;;;;;;5130028;27;20526;-71
2023/03/18 08:19:04;;;;;;;5.17;2.63;;;21.50;37.90;;;;;;5131693;27;20433;-73
2023/03/18 08:21:34;;;;;;;5.80;2.93;;;22.50;37.20;;;;;;5119668;27;20445;-72
2023/03/18 08:24:16;;;;;;;4.47;2.87;;;23.50;34.40;;;;;;5132085;27;20985;-73
2023/03/18 08:26:43;;;;;;;3.97;3.10;;;24.10;33.30;;;;;;5128233;27;20810;-70
2023/03/18 08:29:10;;;;;;;4.10;2.93;;;24.40;31.00;;;;;;5128736;27;20448;-71
2023/03/18 08:31:38;;;;;;;7.60;2.50;;;24.20;30.00;;;;;;5114604;27;20493;-71
2023/03/18 08:34:05;;;;;;;4.13;2.63;;;23.90;29.60;;;;;;5118675;27;20453;-70
2023/03/18 08:36:34;;;;;;;6.00;3.07;;;23.40;30.00;;;;;;5124621;27;20529;-70
2023/03/18 08:39:02;;;;;;;8.77;3.33;;;22.90;31.20;;;;;;5115010;27;20558;-70
2023/03/18 08:41:31;;;;;;;4.13;3.00;;;22.60;32.00;;;;;;5115433;27;20469;-71
2023/03/18 08:44:01;;;;;;;8.07;3.60;;;22.40;33.20;;;;;;5126896;27;20438;-70
2023/03/18 08:46:28;;;;;;;4.43;2.90;;;22.30;33.40;;;;;;5128220;27;20426;-72
2023/03/18 08:48:59;;;;;;;4.13;2.67;;;22.30;33.20;;;;;;5115471;28;20857;-70
2023/03/18 08:51:27;;;;;;;4.10;2.80;;;22.40;33.70;;;;;;5116055;27;20546;-70
2023/03/18 08:53:56;;;;;;;4.90;2.70;;;22.80;35.00;;;;;;5117839;27;20525;-72
2023/03/18 08:56:24;;;;;;;3.37;2.00;;;23.80;34.00;;;;;;5135457;27;20483;-70
2023/03/18 08:58:51;;;;;;;5.47;2.67;;;25.50;31.90;;;;;;5133701;27;20444;-70
2023/03/18 09:01:20;;;;;;;5.87;2.77;;;27.00;29.70;;;;;;5134302;27;20572;-70
2023/03/18 09:03:47;;;;;;;5.60;2.40;;;28.40;27.30;;;;;;5134790;27;20431;-71
2023/03/18 09:06:15;;;;;;;3.40;2.43;;;29.00;26.30;;;;;;5135965;27;20497;-70
2023/03/18 09:08:45;;;;;;;8.20;3.20;;;29.20;25.80;;;;;;5135742;27;20440;-70
2023/03/18 09:11:13;;;;;;;4.40;2.67;;;29.80;25.00;;;;;;5135443;27;20476;-71
2023/03/18 09:13:42;;;;;;;4.93;2.80;;;30.20;24.00;;;;;;5135710;27;20444;-72
2023/03/18 09:16:11;;;;;;;3.50;1.67;;;30.30;23.50;;;;;;5135695;27;20469;-70
2023/03/18 09:18:39;;;;;;;3.80;2.30;;;30.60;23.20;;;;;;5135345;27;20444;-71
2023/03/18 09:21:08;;;;;;;4.70;2.10;;;31.00;22.50;;;;;;5135414;27;20455;-71
2023/03/18 09:23:36;;;;;;;5.33;2.07;;;31.60;22.60;;;;;;5134929;27;20437;-71
2023/03/18 09:26:08;;;;;;;8.03;2.30;;;32.30;21.80;;;;;;5134894;27;20438;-71
2023/03/18 09:28:37;;;;;;;4.30;2.33;;;32.70;20.80;;;;;;5135074;27;20947;-71
2023/03/18 09:31:05;;;;;;;7.93;2.20;;;33.10;21.10;;;;;;5134606;27;20460;-71
2023/03/18 09:33:41;;;;;;;4.70;2.03;;;33.90;20.20;;;;;;5135185;27;20449;-71
2023/03/18 09:36:09;;;;;;;5.53;1.87;;;34.60;19.70;;;;;;5135315;27;20433;-71
2023/03/18 09:38:42;;;;;;;4.03;1.93;;;35.80;18.50;;;;;;5135212;27;20516;-71
2023/03/18 09:41:28;;;;;;;4.70;1.60;;;37.10;17.60;;;;;;5135095;27;20465;-71
2023/03/18 09:44:16;;;;;;;3.50;1.70;;;37.70;16.40;;;;;;5134722;27;20433;-72
2023/03/18 09:47:04;;;;;;;7.40;2.20;;;38.10;16.00;;;;;;5134931;27;20537;-71
2023/03/18 09:49:58;;;;;;;3.60;2.00;;;38.60;15.10;;;;;;5135047;27;20448;-71
2023/03/18 09:52:29;;;;;;;3.57;2.47;;;39.50;14.60;;;;;;5134841;27;20483;-72
2023/03/18 09:55:05;;;;;;;3.70;2.07;;;40.50;14.10;;;;;;5134880;27;20537;-71
2023/03/18 09:57:41;;;;;;;3.60;2.00;;;41.10;13.30;;;;;;5134736;27;20469;-72
2023/03/18 10:00:20;;;;;;;4.43;1.53;;;41.90;12.80;;;;;;5134442;27;20429;-72
2023/03/18 10:02:50;;;;;;;3.33;1.83;;;42.70;11.50;;;;;;5114099;28;20466;-71
2023/03/18 10:05:36;;;;;;;5.77;2.10;;;43.60;11.10;;;;;;5113968;28;20438;-71
2023/03/18 10:08:11;;;;;;;2.90;1.77;;;44.60;11.00;;;;;;5114253;28;20438;-72
2023/03/18 10:10:42;;;;;;;3.80;1.87;;;45.40;10.20;;;;;;5113934;28;20798;-71
2023/03/18 10:13:16;;;;;;;3.10;1.50;;;46.40;9.50;;;;;;5113704;28;20422;-72
2023/03/18 10:15:48;;;;;;;3.67;1.90;;;47.30;8.70;;;;;;5114016;28;20435;-72
2023/03/18 10:18:23;;;;;;;3.27;1.90;;;48.00;8.10;;;;;;5113514;28;20525;-72
2023/03/18 10:21:06;;;;;;;4.70;1.83;;;48.70;8.30;;;;;;5113682;28;20521;-72
2023/03/18 10:23:48;;;;;;;3.13;2.00;;;49.20;8.00;;;;;;5113813;28;20477;-72
2023/03/18 10:26:24;;;;;;;4.00;2.10;;;50.20;7.20;;;;;;5113740;28;20445;-72
2023/03/18 10:29:08;;;;;;;3.73;2.53;;;50.80;7.00;;;;;;5113652;28;20469;-72
2023/03/18 10:31:54;;;;;;;3.53;2.20;;;51.40;7.10;;;;;;5113671;28;21023;-72
2023/03/18 10:34:30;;;;;;;4.57;2.80;;;52.40;6.70;;;;;;5113644;28;20430;-73
2023/03/18 10:37:13;;;;;;;4.30;2.80;;;53.00;6.10;;;;;;5113814;28;20510;-73
2023/03/18 10:39:47;;;;;;;4.00;2.70;;;53.30;6.00;;;;;;5112741;28;20525;-72
2023/03/18 10:42:21;;;;;;;3.73;2.50;;;53.60;5.90;;;;;;5113063;28;20543;-72
2023/03/18 10:44:50;;;;;;;7.33;3.03;;;53.70;5.20;;;;;;5113147;28;20826;-72
2023/03/18 10:47:22;;;;;;;4.27;3.07;;;54.00;5.10;;;;;;5113055;28;20445;-72
2023/03/18 10:50:04;;;;;;;4.97;2.77;;;54.00;5.30;;;;;;5113413;28;20435;-72
2023/03/18 10:52:47;;;;;;;4.93;2.90;;;54.20;5.00;;;;;;5113045;28;20917;-72
2023/03/18 10:55:17;;;;;;;4.37;3.03;;;54.60;5.00;;;;;;5113092;28;20498;-72
2023/03/18 10:57:55;;;;;;;5.13;2.63;;;54.90;4.60;;;;;;5113175;28;20491;-72
2023/03/18 11:00:31;;;;;;;4.13;2.20;;;54.80;4.90;;;;;;5113619;27;20554;-74
2023/03/18 11:03:01;;;;;;;3.20;1.50;;;54.90;4.40;;;;;;5133111;27;20468;-73
2023/03/18 11:05:32;;;;;;;4.27;1.93;;;54.70;4.60;;;;;;5133416;27;20434;-73
2023/03/18 11:08:05;;;;;;;3.33;1.77;;;54.60;4.00;;;;;;5133396;27;20488;-73
2023/03/18 11:10:34;;;;;;;6.53;1.47;;;54.30;4.20;;;;;;5133330;28;20774;-72
2023/03/18 11:13:06;;;;;;;2.87;1.27;;;54.20;4.10;;;;;;5133488;28;20434;-74
2023/03/18 11:15:40;;;;;;;3.37;1.73;;;53.70;4.00;;;;;;5133431;28;20470;-72
2023/03/18 11:18:17;;;;;;;3.90;1.70;;;53.50;3.90;;;;;;5133436;28;20433;-72
2023/03/18 11:20:58;;;;;;;5.80;1.40;;;52.70;4.50;;;;;;5133253;28;21013;-72
2023/03/18 11:23:45;;;;;;;3.67;1.80;;;52.50;4.50;;;;;;5133033;28;20481;-72
2023/03/18 11:26:25;;;;;;;4.40;1.60;;;52.30;4.80;;;;;;5133299;28;20437;-72
2023/03/18 11:29:10;;;;;;;2.90;1.50;;;52.40;4.30;;;;;;5133642;28;20433;-72
2023/03/18 11:31:49;;;;;;;5.03;1.40;;;52.80;3.90;;;;;;5133380;28;20433;-72
2023/03/18 11:34:24;;;;;;;2.83;1.50;;;52.80;4.10;;;;;;5133258;28;20443;-72
2023/03/18 11:37:03;;;;;;;2.77;1.10;;;52.30;4.20;;;;;;5133318;28;20452;-73
2023/03/18 11:39:36;;;;;;;4.00;1.90;;;52.10;4.10;;;;;;5132973;28;20525;-73
2023/03/18 11:42:16;;;;;;;4.43;1.60;;;52.00;4.20;;;;;;5133112;28;20508;-72
2023/03/18 11:44:48;;;;;;;3.40;1.57;;;51.90;4.10;;;;;;5133063;28;20467;-72
2023/03/18 11:47:24;;;;;;;4.80;1.67;;;52.00;4.50;;;;;;5133054;28;20437;-72
2023/03/18 11:49:52;;;;;;;4.13;1.53;;;52.00;4.20;;;;;;5133600;27;20444;-72
2023/03/18 11:52:37;;;;;;;3.50;1.40;;;52.00;4.60;;;;;;5137532;27;20532;-72
2023/03/18 11:55:19;;;;;;;3.83;1.70;;;52.30;4.40;;;;;;5137234;27;20529;-72
2023/03/18 11:58:10;;;;;;;3.20;1.63;;;52.70;4.00;;;;;;5137192;27;20540;-72
2023/03/18 12:00:52;;;;;;;4.17;1.70;;;52.40;4.20;;;;;;5136605;27;20433;-72
2023/03/18 12:04:04;;;;;;;2.63;1.43;;;52.00;4.30;;;;;;5136688;27;20897;-72
2023/03/18 12:06:38;;;;;;;6.07;1.73;;;51.60;4.20;;;;;;5031170;28;20448;-72
2023/03/18 12:09:18;;;;;;;5.17;1.57;;;51.10;4.40;;;;;;5127299;27;20949;-72
2023/03/18 12:12:05;;;;;;;2.80;1.60;;;51.10;4.40;;;;;;5136509;27;20520;-72
2023/03/18 12:14:42;;;;;;;6.20;2.33;;;51.30;4.70;;;;;;5136824;27;20448;-72
2023/03/18 12:17:24;;;;;;;4.10;1.63;;;51.40;4.70;;;;;;5136862;27;20501;-72
2023/03/18 12:20:46;;;;;;;3.10;1.53;;;51.60;5.00;;;;;;5136679;27;20463;-72
2023/03/18 12:23:46;;;;;;;2.80;1.57;;;51.60;4.30;;;;;;5033000;28;20481;-72
2023/03/18 12:26:22;;;;;;;4.70;1.60;;;51.30;4.50;;;;;;5136363;27;20999;-72
2023/03/18 12:29:08;;;;;;;4.03;1.50;;;51.10;4.70;;;;;;5136586;27;20455;-72
2023/03/18 12:31:52;;;;;;;3.27;1.50;;;50.90;4.30;;;;;;5136382;27;20445;-72
2023/03/18 12:34:39;;;;;;;5.53;1.53;;;51.00;4.70;;;;;;5136313;27;20537;-72
2023/03/18 12:37:39;;;;;;;3.73;1.60;;;50.90;4.50;;;;;;5136546;27;20433;-72
2023/03/18 12:40:26;;;;;;;7.37;2.50;;;50.60;4.80;;;;;;5136052;27;20797;-72
2023/03/18 12:43:32;;;;;;;4.27;1.50;;;50.50;4.50;;;;;;5135879;27;20567;-72
2023/03/18 12:46:16;;;;;;;2.87;1.30;;;49.80;4.80;;;;;;5135996;27;20518;-72
2023/03/18 12:48:54;;;;;;;3.90;1.40;;;49.30;4.70;;;;;;5135873;27;20467;-72
2023/03/18 12:51:26;;;;;;;2.77;1.53;;;48.90;4.60;;;;;;5135980;27;20429;-71
2023/03/18 12:54:08;;;;;;;2.23;1.00;;;48.70;5.40;;;;;;5136058;27;20448;-72
2023/03/18 12:56:43;;;;;;;4.30;1.90;;;48.80;5.20;;;;;;5136010;27;20445;-72
2023/03/18 12:59:22;;;;;;;4.20;1.27;;;49.00;5.70;;;;;;5136133;27;20472;-72
2023/03/18 13:02:06;;;;;;;2.60;1.20;;;48.90;5.30;;;;;;5134762;27;20551;-71
2023/03/18 13:04:39;;;;;;;4.83;1.40;;;48.70;4.90;;;;;;5135771;27;20425;-72
2023/03/18 13:07:18;;;;;;;2.30;1.40;;;48.50;5.30;;;;;;5135930;27;20440;-72
2023/03/18 13:09:50;;;;;;;8.80;1.47;;;48.40;5.30;;;;;;5135738;27;20429;-72
2023/03/18 13:12:26;;;;;;;2.70;1.40;;;48.30;5.20;;;;;;5135629;27;20421;-72
2023/03/18 13:15:01;;;;;;;4.33;1.57;;;48.00;5.30;;;;;;5135748;27;20433;-72
2023/03/18 13:17:47;;;;;;;3.60;1.57;;;47.60;5.40;;;;;;5135354;27;20441;-72
2023/03/18 13:20:24;;;;;;;2.63;1.40;;;47.00;5.60;;;;;;5135662;27;20449;-75
2023/03/18 13:23:25;;;;;;;4.10;1.43;;;46.70;5.60;;;;;;5135241;27;20559;-71